Meteógrafos Informações Meteorológicas em tempo real
Aeroporto da Pampulha
15-12-2019 21:56

Temperatura atual: 24 graus 75 F    Umidade relativa: 50 %
Velocidade do vento: 05 nós 9 Km/h    Direção: 080 graus E
Ajuste do altímetro ..: 1019 HPA
Visibilidade: Ótima    Tempo presente: Céu Limpo

Observação
Data Hora BRTTempo°CUmidadePressãoVentoVisib.
15/12 - 21:56   Céu Limpo 24° 50% 1019 Leste/9 km/h OK
15/12 - 20:56   Céu Limpo 25° 47% 1019 Leste/9 km/h OK
15/12 - 19:56   Céu Limpo 26° 44% 1019 Este-nordeste/12 km/h OK
15/12 - 18:56   Céu Limpo 28° 37% 1018 Nordeste/10 km/h OK
15/12 - 17:55   Não Disponível 29° 32% 1018 Este-nordeste/14 km/h OK
15/12 - 16:56   Não Disponível 30° 29% 1018 Este-nordeste/16 km/h OK
15/12 - 15:56   Não Disponível 30° 31% 1019 Norte-nordeste/16 km/h OK
15/12 - 14:56   Poucas nuvens esparsas 29° 37% 1019 Este-nordeste/14 km/h OK
15/12 - 13:56   Poucas nuvens esparsas 28° 39% 1020 Leste/23 km/h OK
15/12 - 12:56   Poucas nuvens esparsas 28° 45% 1021 Leste/27 km/h OK
15/12 - 11:56   Parcialmente Nublado 27° 44% 1022 Leste/28 km/h OK
15/12 - 10:56   Parcialmente Nublado 26° 47% 1022 Este-nordeste/21 km/h OK
15/12 - 09:56   Parcialmente Nublado 25° 50% 1022 Este-nordeste/18 km/h OK
15/12 - 08:56   Poucas nuvens esparsas 24° 57% 1022 Leste/21 km/h OK
15/12 - 07:56   Poucas nuvens esparsas 22° 68% 1021 Leste/23 km/h OK
15/12 - 06:56   Poucas nuvens esparsas 21° 73% 1020 Este-nordeste/14 km/h OK
15/12 - 05:56   Parcialmente Nublado 21° 73% 1020 Leste/14 km/h OK
15/12 - 04:56   Parcialmente Nublado 21° 73% 1019 Leste/16 km/h OK
15/12 - 03:56   Céu Limpo 20° 77% 1019 Este-sudeste/12 km/h OK
15/12 - 02:56   Céu Limpo 20° 77% 1019 Este-sudeste/12 km/h OK
15/12 - 01:56   Céu Limpo 21° 73% 1019 Leste/10 km/h OK
15/12 - 00:56   Céu Limpo 22° 68% 1020 Leste/9 km/h OK
14/12 - 23:56   Céu Limpo 22° 68% 1020 Leste/10 km/h OK
14/12 - 22:56   Céu Limpo 24° 57% 1020 Leste/9 km/h OK

Termo de Uso  |   Links Úteis  |   Imprensa  |  Anuncie  |  Fale Conosco  |  Versão Celular  |   Política de Privacidade

Apolo11.com - Todos os direitos reservados - 2000 - 2019

"Amargas são as lágrimas derramadas, mas ainda mais amargas são as que não se derramam" - Provérbio irlandês